Time;durP1;ratioP1;P1;durP2;ratioP2;P2;SDS_P1;SDS_P2;PMS_P1;PMS_P2;Temp;Humidity;BMP_temperature;BMP_pressure;BME280_temperature;BME280_humidity;BME280_pressure;Samples;Min_cycle;Max_cycle;Signal;HPM_P1;HPM_P2
2023/03/16 00:02:02;;;;;;;;;6.00;3.60;;;;;1.65;69.32;100250.53;5095515;28;8906;-62
2023/03/16 00:04:30;;;;;;;;;1.00;1.00;;;;;1.63;69.35;100246.25;5095123;28;8822;-62
2023/03/16 00:06:58;;;;;;;;;2.20;2.20;;;;;1.60;69.38;100241.97;5095048;28;8863;-62
2023/03/16 00:09:29;;;;;;;;;3.00;3.00;;;;;1.57;69.88;100252.59;5095884;28;9558;-61
2023/03/16 00:11:58;;;;;;;;;3.00;3.00;;;;;1.56;69.47;100256.13;5098435;28;8833;-61
2023/03/16 00:14:25;;;;;;;;;1.00;1.00;;;;;1.51;70.00;100247.56;5099312;28;8826;-61
2023/03/16 00:16:53;;;;;;;;;3.80;2.20;;;;;1.49;70.04;100244.16;5099410;28;8830;-61
2023/03/16 00:19:21;;;;;;;;;3.00;3.00;;;;;1.47;70.04;100243.38;5099906;28;8853;-62
2023/03/16 00:21:50;;;;;;;;;0.60;0.60;;;;;1.46;70.12;100252.13;5099633;28;8802;-61
2023/03/16 00:24:18;;;;;;;;;1.00;1.00;;;;;1.43;69.58;100241.75;5099167;28;8822;-61
2023/03/16 00:26:46;;;;;;;;;4.00;4.00;;;;;1.41;70.04;100253.22;5098761;28;8841;-61
2023/03/16 00:29:13;;;;;;;;;4.00;4.00;;;;;1.35;70.30;100251.69;5099559;28;8861;-62
2023/03/16 00:31:42;;;;;;;;;2.00;1.80;;;;;1.31;70.15;100255.31;5099316;28;8833;-62
2023/03/16 00:34:10;;;;;;;;;3.20;3.00;;;;;1.29;70.00;100254.53;5099293;28;8887;-62
2023/03/16 00:36:38;;;;;;;;;4.80;3.80;;;;;1.29;70.39;100240.59;5099259;28;8871;-61
2023/03/16 00:39:06;;;;;;;;;3.00;3.00;;;;;1.29;70.73;100235.34;5098943;28;8844;-62
2023/03/16 00:41:36;;;;;;;;;3.00;3.00;;;;;1.26;69.96;100236.31;5098540;28;8838;-61
2023/03/16 00:44:04;;;;;;;;;2.60;2.60;;;;;1.25;70.00;100229.34;5099098;28;8834;-61
2023/03/16 00:46:32;;;;;;;;;6.60;4.00;;;;;1.22;70.35;100224.22;5099263;28;8862;-61
2023/03/16 00:49:01;;;;;;;;;1.40;1.40;;;;;1.22;69.81;100224.22;5099155;28;8826;-61
2023/03/16 00:51:32;;;;;;;;;2.20;1.00;;;;;1.21;70.33;100233.00;5098662;28;8822;-62
2023/03/16 00:54:00;;;;;;;;;2.60;2.60;;;;;1.21;70.09;100234.78;5099051;28;8814;-61
2023/03/16 00:56:27;;;;;;;;;3.00;3.00;;;;;1.24;69.99;100230.28;5098986;28;9635;-66
2023/03/16 00:58:56;;;;;;;;;1.00;1.00;;;;;1.30;70.03;100227.41;5097856;28;8826;-62
2023/03/16 01:01:24;;;;;;;;;0.80;0.80;;;;;1.36;70.46;100227.16;5098416;28;8810;-62
2023/03/16 01:03:53;;;;;;;;;1.40;1.00;;;;;1.44;69.77;100216.41;5098233;28;8868;-61
2023/03/16 01:06:21;;;;;;;;;3.80;3.00;;;;;1.53;69.48;100218.66;5098030;28;8814;-61
2023/03/16 01:08:49;;;;;;;;;1.80;1.40;;;;;1.66;69.30;100220.75;5098454;28;9532;-62
2023/03/16 01:11:16;;;;;;;;;3.00;3.00;;;;;1.79;69.08;100227.22;5098636;28;8833;-62
2023/03/16 01:13:45;;;;;;;;;1.00;1.00;;;;;1.94;68.60;100234.47;5098418;28;8844;-61
2023/03/16 01:16:13;;;;;;;;;0.80;0.80;;;;;2.07;68.79;100233.06;5098563;28;9476;-62
2023/03/16 01:18:41;;;;;;;;;1.40;1.40;;;;;2.13;68.31;100226.72;5098231;28;8814;-61
2023/03/16 01:21:09;;;;;;;;;1.00;1.00;;;;;2.15;68.27;100225.75;5097415;28;8837;-61
2023/03/16 01:23:37;;;;;;;;;1.00;1.00;;;;;2.19;68.14;100223.84;5098371;28;8938;-61
2023/03/16 01:26:05;;;;;;;;;1.00;0.80;;;;;2.20;68.38;100228.19;5098533;28;8844;-61
2023/03/16 01:28:33;;;;;;;;;2.20;2.20;;;;;2.19;68.32;100231.72;5098691;28;8818;-61
2023/03/16 01:31:01;;;;;;;;;3.00;3.00;;;;;2.16;68.09;100216.94;5098678;28;8845;-62
2023/03/16 01:33:28;;;;;;;;;1.80;1.80;;;;;2.16;68.80;100211.69;5098121;28;8818;-61
2023/03/16 01:35:56;;;;;;;;;1.00;1.00;;;;;2.14;68.15;100207.41;5098342;28;8936;-61
2023/03/16 01:38:24;;;;;;;;;2.20;2.20;;;;;2.13;68.76;100210.97;5098457;28;8818;-62
2023/03/16 01:40:52;;;;;;;;;4.00;4.00;;;;;2.13;69.10;100196.03;5098217;28;8844;-62
2023/03/16 01:43:20;;;;;;;;;4.00;3.60;;;;;2.14;68.17;100200.38;5098337;28;8829;-61
2023/03/16 01:45:48;;;;;;;;;1.40;1.00;;;;;2.15;68.12;100194.22;5097450;28;8838;-62
2023/03/16 01:48:15;;;;;;;;;0.20;0.20;;;;;2.15;68.59;100188.09;5097706;28;8927;-62
2023/03/16 01:50:43;;;;;;;;;1.00;1.00;;;;;2.17;68.83;100186.25;5097916;28;8835;-62
2023/03/16 01:53:11;;;;;;;;;4.80;2.60;;;;;2.22;68.42;100176.44;5097551;28;8838;-62
2023/03/16 01:55:39;;;;;;;;;0.00;0.00;;;;;2.32;68.13;100173.34;5098296;28;8810;-62
2023/03/16 01:58:07;;;;;;;;;1.40;0.80;;;;;2.43;67.62;100168.47;5097086;28;8806;-62
2023/03/16 02:00:34;;;;;;;;;0.00;0.00;;;;;2.54;67.70;100163.63;5098107;28;8821;-62
2023/03/16 02:03:02;;;;;;;;;0.80;0.80;;;;;2.66;67.22;100170.13;5097694;28;8822;-62
2023/03/16 02:05:30;;;;;;;;;0.60;0.60;;;;;2.73;66.95;100159.25;5097280;28;9552;-61
2023/03/16 02:07:58;;;;;;;;;0.80;0.20;;;;;2.85;67.13;100165.72;5097095;28;8837;-61
2023/03/16 02:10:26;;;;;;;;;3.00;3.00;;;;;2.90;66.69;100172.50;5097332;28;8910;-62
2023/03/16 02:12:54;;;;;;;;;1.00;1.00;;;;;2.97;66.31;100166.06;5097966;28;8826;-62
2023/03/16 02:15:21;;;;;;;;;0.60;0.40;;;;;3.03;66.51;100157.88;5097699;28;8838;-60
2023/03/16 02:17:49;;;;;;;;;1.80;1.00;;;;;3.06;65.80;100148.97;5097237;28;8829;-62
2023/03/16 02:20:17;;;;;;;;;1.00;0.60;;;;;3.09;66.18;100154.13;5097526;28;8826;-62
2023/03/16 02:22:44;;;;;;;;;1.00;1.00;;;;;3.11;65.90;100147.84;5097059;28;8824;-62
2023/03/16 02:25:12;;;;;;;;;3.00;1.00;;;;;3.15;65.81;100133.63;5097555;28;8818;-62
2023/03/16 02:27:40;;;;;;;;;0.60;0.60;;;;;3.18;65.98;100137.91;5097591;28;8841;-62
2023/03/16 02:30:08;;;;;;;;;1.00;1.00;;;;;3.21;65.80;100132.50;5097164;28;9530;-62
2023/03/16 02:32:36;;;;;;;;;3.00;3.00;;;;;3.24;65.93;100127.94;5097189;28;8834;-62
2023/03/16 02:35:04;;;;;;;;;0.00;0.00;;;;;3.25;65.56;100127.00;5096533;28;8822;-62
2023/03/16 02:37:33;;;;;;;;;3.00;1.40;;;;;3.25;65.48;100121.75;5097235;28;8834;-62
2023/03/16 02:40:02;;;;;;;;;0.80;0.80;;;;;3.22;66.18;100119.28;5097102;28;8818;-62
2023/03/16 02:42:30;;;;;;;;;0.60;0.20;;;;;3.22;65.64;100129.78;5097014;28;8903;-62
2023/03/16 02:45:00;;;;;;;;;0.80;0.80;;;;;3.22;66.03;100126.31;5097747;28;9571;-62
2023/03/16 02:47:27;;;;;;;;;0.00;0.00;;;;;3.22;66.16;100113.16;5097070;28;8825;-61
2023/03/16 02:49:55;;;;;;;;;0.60;0.60;;;;;3.21;66.28;100111.44;5096843;28;8817;-61
2023/03/16 02:52:23;;;;;;;;;0.40;0.40;;;;;3.21;66.21;100117.56;5096736;28;8852;-62
2023/03/16 02:54:51;;;;;;;;;3.00;3.00;;;;;3.22;66.24;100110.50;5096808;28;9194;-61
2023/03/16 02:57:19;;;;;;;;;0.20;0.00;;;;;3.23;66.13;100105.19;5097002;28;8806;-62
2023/03/16 02:59:47;;;;;;;;;1.00;1.00;;;;;3.25;66.30;100113.03;5096866;28;9546;-62
2023/03/16 03:02:15;;;;;;;;;0.20;0.20;;;;;3.23;65.74;100105.19;5096846;28;8849;-62
2023/03/16 03:04:45;;;;;;;;;1.40;1.40;;;;;3.19;66.06;100100.97;5096526;28;8810;-62
2023/03/16 03:07:13;;;;;;;;;0.00;0.00;;;;;3.18;66.30;100108.97;5096545;28;8826;-62
2023/03/16 03:09:41;;;;;;;;;0.20;0.00;;;;;3.14;66.31;100105.63;5096389;28;8861;-58
2023/03/16 03:12:09;;;;;;;;;0.60;0.60;;;;;3.12;66.78;100106.63;5096242;28;8825;-60
2023/03/16 03:14:37;;;;;;;;;0.00;0.00;;;;;3.11;66.64;100104.91;5096377;28;8853;-59
2023/03/16 03:17:06;;;;;;;;;2.20;2.20;;;;;3.09;66.65;100096.25;5096115;28;8818;-60
2023/03/16 03:19:34;;;;;;;;;1.80;1.80;;;;;3.09;66.03;100114.66;5096139;28;8818;-63
2023/03/16 03:22:03;;;;;;;;;0.20;0.00;;;;;3.09;66.10;100106.78;5096042;28;8814;-62
2023/03/16 03:24:30;;;;;;;;;0.20;0.20;;;;;3.10;66.25;100105.84;5096176;28;8822;-62
2023/03/16 03:26:59;;;;;;;;;0.00;0.00;;;;;3.15;66.70;100101.19;5095629;28;8910;-62
2023/03/16 03:29:33;;;;;;;;;0.00;0.00;;;;;3.17;66.72;100100.22;5095868;28;8843;-61
2023/03/16 03:32:01;;;;;;;;;0.80;0.40;;;;;3.20;66.13;100097.44;5096021;28;8852;-61
2023/03/16 03:34:28;;;;;;;;;0.80;0.80;;;;;3.22;66.24;100086.84;5096477;28;8947;-62
2023/03/16 03:36:56;;;;;;;;;0.00;0.00;;;;;3.30;65.71;100082.06;5096305;28;8826;-62
2023/03/16 03:39:24;;;;;;;;;0.20;0.20;;;;;3.37;65.90;100079.06;5096005;28;8903;-62
2023/03/16 03:41:53;;;;;;;;;1.00;1.00;;;;;3.42;65.95;100086.75;5096024;28;8899;-62
2023/03/16 03:44:21;;;;;;;;;0.40;0.00;;;;;3.46;65.30;100080.38;5096620;28;8842;-60
2023/03/16 03:46:48;;;;;;;;;0.80;0.80;;;;;3.51;65.28;100075.75;5095986;28;8822;-61
2023/03/16 03:49:16;;;;;;;;;0.00;0.00;;;;;3.56;65.16;100082.50;5095662;28;8866;-62
2023/03/16 03:51:44;;;;;;;;;0.20;0.20;;;;;3.61;64.82;100072.59;5095541;28;8810;-61
2023/03/16 03:54:12;;;;;;;;;1.00;1.00;;;;;3.66;64.47;100070.59;5095959;28;8890;-61
2023/03/16 03:56:39;;;;;;;;;1.00;1.00;;;;;3.72;65.11;100078.19;5095791;28;8818;-62
2023/03/16 03:59:07;;;;;;;;;1.00;0.00;;;;;3.75;64.46;100084.13;5095686;28;8818;-60
2023/03/16 04:01:34;;;;;;;;;0.80;0.00;;;;;3.77;64.94;100068.28;5095994;28;8875;-62
2023/03/16 04:04:03;;;;;;;;;0.00;0.00;;;;;3.79;64.62;100069.03;5095815;28;8965;-61
2023/03/16 04:06:31;;;;;;;;;0.60;0.60;;;;;3.78;64.69;100067.34;5095765;28;8856;-62
2023/03/16 04:08:59;;;;;;;;;0.60;0.60;;;;;3.80;65.08;100071.63;5095401;28;8822;-59
2023/03/16 04:11:27;;;;;;;;;0.00;0.00;;;;;3.84;64.60;100073.19;5095720;28;8853;-61
2023/03/16 04:13:55;;;;;;;;;0.00;0.00;;;;;3.86;64.79;100067.81;5095650;28;8821;-62
2023/03/16 04:16:25;;;;;;;;;1.80;1.00;;;;;3.86;64.95;100066.03;5095657;28;8853;-62
2023/03/16 04:18:53;;;;;;;;;0.00;0.00;;;;;3.86;64.56;100057.28;5095609;28;8803;-61
2023/03/16 04:21:21;;;;;;;;;2.20;1.00;;;;;3.89;64.80;100060.59;5095226;28;8854;-62
2023/03/16 04:23:48;;;;;;;;;3.00;1.40;;;;;3.91;64.76;100057.91;5095563;28;8806;-61
2023/03/16 04:26:16;;;;;;;;;1.00;1.00;;;;;3.92;64.86;100049.06;5095386;28;8833;-61
2023/03/16 04:28:44;;;;;;;;;0.00;0.00;;;;;3.93;64.20;100053.41;5095244;28;8847;-62
2023/03/16 04:31:12;;;;;;;;;0.00;0.00;;;;;3.94;64.30;100047.19;5095067;28;8826;-62
2023/03/16 04:33:41;;;;;;;;;0.00;0.00;;;;;3.93;64.87;100053.41;5095385;28;8853;-62
2023/03/16 04:36:09;;;;;;;;;1.00;1.00;;;;;3.92;64.35;100047.31;5094996;28;8825;-62
2023/03/16 04:38:36;;;;;;;;;1.00;1.00;;;;;3.95;64.26;100038.41;5094213;28;8826;-61
2023/03/16 04:41:04;;;;;;;;;1.00;1.00;;;;;3.98;64.17;100038.22;5093453;28;8834;-60
2023/03/16 04:43:35;;;;;;;;;2.60;0.60;;;;;4.00;64.48;100031.94;5093119;28;8837;-62
2023/03/16 04:46:02;;;;;;;;;0.20;0.20;;;;;4.02;64.18;100024.81;5091442;28;8842;-62
2023/03/16 04:48:31;;;;;;;;;1.00;1.00;;;;;4.03;63.92;100023.03;5091825;28;8834;-63
2023/03/16 04:50:59;;;;;;;;;1.00;1.00;;;;;4.04;64.22;100027.38;5091763;28;8830;-63
2023/03/16 04:53:27;;;;;;;;;0.80;0.80;;;;;4.07;63.78;100027.22;5093156;28;8834;-63
2023/03/16 04:55:55;;;;;;;;;0.60;0.60;;;;;4.07;63.75;100021.94;5093956;28;8814;-63
2023/03/16 04:58:23;;;;;;;;;1.00;1.00;;;;;4.06;64.02;100026.38;5098211;28;8837;-63
2023/03/16 05:00:50;;;;;;;;;1.00;1.00;;;;;4.08;64.30;100019.22;5098272;28;8826;-63
2023/03/16 05:03:18;;;;;;;;;1.00;1.00;;;;;4.09;64.44;100014.78;5097361;28;8864;-62
2023/03/16 05:05:46;;;;;;;;;1.00;0.80;;;;;4.12;64.07;100027.81;5097241;28;8834;-63
2023/03/16 05:08:14;;;;;;;;;0.00;0.00;;;;;4.13;63.50;100017.19;5098809;28;8822;-62
2023/03/16 05:10:41;;;;;;;;;1.00;1.00;;;;;4.13;63.52;100004.00;5098053;28;8834;-63
2023/03/16 05:13:09;;;;;;;;;0.20;0.20;;;;;4.14;63.88;99997.84;5098478;28;8813;-63
2023/03/16 05:15:37;;;;;;;;;3.00;1.00;;;;;4.15;63.53;100002.19;5098179;28;8838;-62
2023/03/16 05:18:04;;;;;;;;;0.00;0.00;;;;;4.15;63.36;100002.19;5097840;28;8822;-63
2023/03/16 05:20:32;;;;;;;;;0.80;0.80;;;;;4.15;63.39;99999.53;5097767;28;8838;-60
2023/03/16 05:23:00;;;;;;;;;0.00;0.00;;;;;4.17;63.60;100002.06;5098039;28;8839;-59
2023/03/16 05:25:28;;;;;;;;;0.00;0.00;;;;;4.19;63.66;99994.97;5097717;28;8948;-61
2023/03/16 05:27:55;;;;;;;;;0.80;0.60;;;;;4.20;63.23;99994.03;5097915;28;8872;-62
2023/03/16 05:30:23;;;;;;;;;0.40;0.40;;;;;4.18;63.51;99988.81;5097104;28;8814;-61
2023/03/16 05:32:53;;;;;;;;;0.00;0.00;;;;;4.21;63.36;99991.31;5097430;28;8830;-63
2023/03/16 05:35:21;;;;;;;;;0.00;0.00;;;;;4.23;63.25;99992.06;5097889;28;8830;-60
2023/03/16 05:37:50;;;;;;;;;1.80;1.40;;;;;4.26;63.14;99996.34;5097525;28;8984;-62
2023/03/16 05:40:18;;;;;;;;;0.00;0.00;;;;;4.26;62.99;99997.16;5097535;28;8814;-61
2023/03/16 05:42:45;;;;;;;;;0.80;0.80;;;;;4.30;63.22;100003.13;5098359;28;8842;-61
2023/03/16 05:45:13;;;;;;;;;3.00;3.00;;;;;4.32;62.87;99998.63;5097669;28;8876;-62
2023/03/16 05:47:41;;;;;;;;;0.40;0.00;;;;;4.33;63.19;99990.63;5097821;28;8837;-63
2023/03/16 05:50:10;;;;;;;;;0.00;0.00;;;;;4.32;63.25;99996.84;5096866;28;9576;-63
2023/03/16 05:52:37;;;;;;;;;0.20;0.20;;;;;4.33;62.69;99997.72;5096822;28;8836;-61
2023/03/16 05:55:06;;;;;;;;;0.40;0.40;;;;;4.34;62.78;99994.16;5097195;28;8848;-59
2023/03/16 05:57:34;;;;;;;;;1.00;0.40;;;;;4.34;62.67;99994.16;5096986;28;8814;-59
2023/03/16 06:00:09;;;;;;;;;1.00;1.00;;;;;4.35;62.88;100001.13;5097516;28;8944;-63
2023/03/16 06:02:37;;;;;;;;;0.40;0.40;;;;;4.38;63.13;100003.56;5097243;28;9602;-62
2023/03/16 06:05:06;;;;;;;;;1.00;1.00;;;;;4.39;62.64;100016.69;5096311;28;8826;-62
2023/03/16 06:07:33;;;;;;;;;1.00;1.00;;;;;4.40;63.24;100012.28;5096357;28;8826;-62
2023/03/16 06:10:01;;;;;;;;;1.60;1.60;;;;;4.42;62.44;100005.13;5096952;28;8838;-63
2023/03/16 06:12:29;;;;;;;;;0.40;0.40;;;;;4.46;63.06;100001.38;5096140;28;8818;-63
2023/03/16 06:14:56;;;;;;;;;3.00;1.00;;;;;4.48;62.82;100007.44;5096480;28;8837;-62
2023/03/16 06:17:24;;;;;;;;;2.60;2.60;;;;;4.51;63.07;100016.03;5096176;28;8859;-63
2023/03/16 06:19:52;;;;;;;;;1.20;0.20;;;;;4.55;62.84;100003.50;5095576;28;9496;-63
2023/03/16 06:22:20;;;;;;;;;0.80;0.80;;;;;4.61;62.63;100001.41;5095834;28;8834;-62
2023/03/16 06:24:48;;;;;;;;;2.20;1.00;;;;;4.65;62.31;100005.56;5094038;28;8829;-62
2023/03/16 06:27:17;;;;;;;;;0.00;0.00;;;;;4.67;62.05;100006.34;5093979;28;8903;-62
2023/03/16 06:29:44;;;;;;;;;3.00;3.00;;;;;4.70;62.43;99997.41;5093451;28;8846;-63
2023/03/16 06:32:12;;;;;;;;;2.60;2.60;;;;;4.71;62.40;100010.50;5092756;28;9534;-62
2023/03/16 06:34:40;;;;;;;;;0.40;0.40;;;;;4.74;62.42;100009.50;5093409;28;9509;-62
2023/03/16 06:37:08;;;;;;;;;3.00;1.00;;;;;4.75;61.76;100016.47;5093148;28;8853;-63
2023/03/16 06:39:36;;;;;;;;;0.60;0.60;;;;;4.77;62.12;99999.63;5093488;28;8838;-63
2023/03/16 06:42:04;;;;;;;;;1.00;1.00;;;;;4.79;62.47;99999.56;5093125;28;8830;-63
2023/03/16 06:44:32;;;;;;;;;4.40;4.00;;;;;4.80;62.04;100003.88;5095224;28;8852;-60
2023/03/16 06:47:00;;;;;;;;;1.00;1.00;;;;;4.84;61.84;100008.03;5093815;28;8818;-61
2023/03/16 06:49:27;;;;;;;;;0.20;0.00;;;;;4.88;62.06;99991.13;5093901;28;8849;-61
2023/03/16 06:51:55;;;;;;;;;3.00;1.00;;;;;4.96;61.77;99994.19;5092389;28;8850;-62
2023/03/16 06:54:23;;;;;;;;;1.00;1.00;;;;;5.02;61.53;99996.47;5092142;28;8818;-62
2023/03/16 06:56:51;;;;;;;;;0.00;0.00;;;;;5.08;61.54;99989.06;5092224;28;8876;-62
2023/03/16 06:59:19;;;;;;;;;1.40;1.00;;;;;5.16;61.19;99993.91;5092055;28;8844;-62
2023/03/16 07:01:49;;;;;;;;;1.00;1.00;;;;;5.25;60.66;100001.31;5090680;28;8877;-60
2023/03/16 07:04:16;;;;;;;;;2.20;1.80;;;;;5.34;61.08;100003.41;5090323;28;8968;-61
2023/03/16 07:06:44;;;;;;;;;1.00;1.00;;;;;5.42;61.04;99988.84;5090732;28;8838;-62
2023/03/16 07:09:13;;;;;;;;;4.60;4.60;;;;;5.50;60.92;99993.66;5092251;28;8814;-62
2023/03/16 07:11:41;;;;;;;;;0.00;0.00;;;;;5.57;60.70;100001.16;5092258;28;8845;-61
2023/03/16 07:14:09;;;;;;;;;4.00;3.00;;;;;5.68;60.34;100005.81;5091995;28;8830;-62
2023/03/16 07:16:36;;;;;;;;;0.00;0.00;;;;;5.78;60.75;100005.16;5092016;28;8829;-61
2023/03/16 07:19:04;;;;;;;;;1.40;1.40;;;;;5.85;60.26;100003.03;5092696;28;8922;-62
2023/03/16 07:21:38;;;;;;;;;1.00;1.00;;;;;5.93;60.03;99998.97;5092128;28;8964;-62
2023/03/16 07:24:06;;;;;;;;;0.60;0.60;;;;;5.99;59.88;99995.97;5093537;28;8840;-60
2023/03/16 07:26:33;;;;;;;;;1.00;1.00;;;;;6.03;59.82;99986.06;5092674;28;8826;-61
2023/03/16 07:29:03;;;;;;;;;1.00;1.00;;;;;6.07;59.35;99987.59;5092748;28;8861;-61
2023/03/16 07:31:31;;;;;;;;;2.20;1.40;;;;;6.09;59.46;99989.22;5091857;28;8850;-61
2023/03/16 07:33:59;;;;;;;;;1.40;1.40;;;;;6.13;59.36;99979.28;5092938;28;8958;-63
2023/03/16 07:36:27;;;;;;;;;1.00;1.00;;;;;6.13;58.64;100009.22;5093401;28;8822;-62
2023/03/16 07:38:55;;;;;;;;;1.00;1.00;;;;;6.13;59.80;100003.94;5092992;28;8846;-61
2023/03/16 07:41:24;;;;;;;;;2.60;1.40;;;;;6.11;59.00;100005.81;5092197;28;8848;-62
2023/03/16 07:43:52;;;;;;;;;1.40;1.40;;;;;6.07;59.38;100012.22;5092391;28;9620;-61
2023/03/16 07:46:20;;;;;;;;;0.80;0.40;;;;;6.04;59.05;100004.50;5091571;28;8860;-62
2023/03/16 07:48:47;;;;;;;;;1.80;1.80;;;;;6.02;58.81;100014.31;5092189;28;8849;-62
2023/03/16 07:51:15;;;;;;;;;1.00;1.00;;;;;6.01;58.42;100019.69;5092215;28;8837;-63
2023/03/16 07:53:43;;;;;;;;;1.00;1.00;;;;;6.01;59.02;100017.03;5091818;28;8841;-61
2023/03/16 07:56:11;;;;;;;;;3.60;3.00;;;;;6.00;59.44;100018.81;5091555;28;8830;-63
2023/03/16 07:58:39;;;;;;;;;1.00;1.00;;;;;6.02;59.04;100018.72;5092233;28;9561;-63
2023/03/16 08:01:08;;;;;;;;;1.00;1.00;;;;;6.04;59.04;100008.91;5092982;28;9593;-62
2023/03/16 08:03:35;;;;;;;;;3.00;3.00;;;;;6.08;58.30;100015.72;5093125;28;8842;-60
2023/03/16 08:06:04;;;;;;;;;1.00;1.00;;;;;6.15;58.48;100017.91;5092439;28;8852;-62
2023/03/16 08:08:32;;;;;;;;;2.60;2.60;;;;;6.26;58.05;100010.19;5093458;28;8852;-62
2023/03/16 08:11:00;;;;;;;;;3.60;3.20;;;;;6.36;58.00;100006.03;5092949;28;8871;-61
2023/03/16 08:13:29;;;;;;;;;2.60;1.80;;;;;6.48;57.96;100004.41;5093452;28;8833;-61
2023/03/16 08:16:00;;;;;;;;;1.00;1.00;;;;;6.58;57.60;100000.25;5092902;28;8984;-62
2023/03/16 08:18:28;;;;;;;;;0.00;0.00;;;;;6.70;57.33;100002.13;5091842;28;8822;-62
2023/03/16 08:20:56;;;;;;;;;3.40;1.80;;;;;6.86;57.13;99998.41;5091350;28;9191;-63
2023/03/16 08:23:24;;;;;;;;;0.80;0.80;;;;;7.04;56.69;100009.63;5091993;28;8838;-62
2023/03/16 08:25:53;;;;;;;;;0.00;0.00;;;;;7.19;56.39;99992.75;5091155;28;8830;-64
2023/03/16 08:28:21;;;;;;;;;1.00;1.00;;;;;7.33;55.45;99996.19;5089458;28;9219;-61
2023/03/16 08:30:49;;;;;;;;;0.40;0.40;;;;;7.50;55.38;99987.16;5089507;28;9539;-61
2023/03/16 08:33:19;;;;;;;;;1.00;1.00;;;;;7.65;55.36;99986.13;5094650;28;8857;-64
2023/03/16 08:35:49;;;;;;;;;0.00;0.00;;;;;7.84;55.17;99977.66;5094947;28;8850;-63
2023/03/16 08:38:18;;;;;;;;;1.00;1.00;;;;;7.98;54.74;99972.25;5095042;28;8830;-62
2023/03/16 08:40:47;;;;;;;;;1.40;1.00;;;;;8.11;54.41;99981.09;5093069;28;8838;-62
2023/03/16 08:43:15;;;;;;;;;0.40;0.40;;;;;8.17;53.92;99983.31;5096301;28;8822;-62
2023/03/16 08:45:43;;;;;;;;;0.50;0.50;;;;;8.20;53.85;99975.16;5095024;28;8873;-63
2023/03/16 08:48:13;;;;;;;;;0.50;0.50;;;;;8.29;54.18;99984.31;5096729;28;8853;-64
2023/03/16 08:50:42;;;;;;;;;1.00;1.00;;;;;8.35;53.69;99976.75;5095008;28;9004;-62
2023/03/16 08:53:09;;;;;;;;;1.00;1.00;;;;;8.47;53.60;99973.25;5096401;28;9549;-62
2023/03/16 08:55:37;;;;;;;;;0.00;0.00;;;;;8.50;53.11;99975.69;5096437;28;8834;-58
2023/03/16 08:58:05;;;;;;;;;0.75;0.75;;;;;8.40;53.44;99979.09;5095188;28;9670;-59
2023/03/16 09:00:34;;;;;;;;;0.25;0.25;;;;;8.35;53.55;99984.72;5095961;28;9539;-60
2023/03/16 09:03:02;;;;;;;;;1.00;1.00;;;;;8.33;53.39;99978.69;5096533;28;8856;-59
2023/03/16 09:05:30;;;;;;;;;1.00;1.00;;;;;8.31;53.41;99991.22;5095637;28;8825;-60
2023/03/16 09:07:58;;;;;;;;;1.00;1.00;;;;;8.34;52.77;99988.31;5096306;28;8834;-60
2023/03/16 09:10:27;;;;;;;;;3.00;1.00;;;;;8.49;52.72;99989.91;5095788;28;8918;-60
2023/03/16 09:12:55;;;;;;;;;1.00;1.00;;;;;8.66;52.28;99992.22;5094952;28;8825;-60
2023/03/16 09:15:24;;;;;;;;;0.75;0.25;;;;;8.81;52.55;99991.13;5091395;28;8992;-60
2023/03/16 09:17:53;;;;;;;;;0.50;0.50;;;;;8.96;52.48;99997.97;5091925;28;8834;-58
2023/03/16 09:20:21;;;;;;;;;2.00;2.00;;;;;9.00;52.58;99995.94;5094316;28;8841;-58
2023/03/16 09:22:55;;;;;;;;;1.00;1.00;;;;;8.98;52.11;99997.88;5095092;28;8821;-61
2023/03/16 09:25:24;;;;;;;;;3.00;1.50;;;;;8.88;52.83;99996.84;5094383;28;8841;-58
2023/03/16 09:27:52;;;;;;;;;0.00;0.00;;;;;8.73;52.99;99998.78;5093791;28;8853;-58
2023/03/16 09:30:20;;;;;;;;;1.00;0.25;;;;;8.55;53.09;100002.75;5093592;28;8908;-60
2023/03/16 09:32:49;;;;;;;;;3.00;2.00;;;;;8.37;53.06;100001.38;5093173;28;8860;-59
2023/03/16 09:35:17;;;;;;;;;3.00;1.00;;;;;8.22;53.08;100010.38;5091200;28;8860;-58
2023/03/16 09:37:45;;;;;;;;;0.75;0.75;;;;;8.10;53.34;100028.91;5092076;28;8858;-59
2023/03/16 09:40:32;;;;;;;;;2.50;2.50;;;;;7.96;53.61;100011.31;5092122;28;8834;-61
2023/03/16 09:43:00;;;;;;;;;2.50;2.50;;;;;7.90;53.42;100024.97;5092798;28;8837;-59
2023/03/16 09:45:28;;;;;;;;;1.00;1.00;;;;;7.82;53.69;100021.13;5093222;28;8872;-60
2023/03/16 09:47:57;;;;;;;;;2.20;2.20;;;;;7.77;53.58;100018.78;5093993;28;8837;-60
2023/03/16 09:50:25;;;;;;;;;0.75;0.75;;;;;7.73;53.29;100013.78;5095100;28;8830;-60
2023/03/16 09:53:04;;;;;;;;;1.50;0.50;;;;;7.74;53.78;100003.09;5095240;28;8881;-59
2023/03/16 09:55:32;;;;;;;;;1.00;1.00;;;;;7.75;53.69;100012.75;5095622;28;8826;-61
2023/03/16 09:58:00;;;;;;;;;0.75;0.75;;;;;7.79;53.64;100008.09;5096037;28;8822;-61
2023/03/16 10:00:29;;;;;;;;;3.00;3.00;;;;;7.83;53.74;100020.19;5094694;28;8856;-61
2023/03/16 10:02:57;;;;;;;;;4.00;3.00;;;;;7.89;53.59;100012.66;5095377;28;8826;-62
2023/03/16 10:05:26;;;;;;;;;0.50;0.50;;;;;7.97;53.13;100005.03;5094006;28;8876;-60
2023/03/16 10:07:54;;;;;;;;;0.00;0.00;;;;;8.16;53.32;100004.63;5094876;28;9196;-62
2023/03/16 10:10:22;;;;;;;;;1.00;1.00;;;;;8.39;52.69;99993.31;5095106;28;8830;-63
2023/03/16 10:12:51;;;;;;;;;0.75;0.00;;;;;8.65;52.63;99987.88;5093644;28;8841;-62
2023/03/16 10:15:19;;;;;;;;;1.00;1.00;;;;;8.90;52.02;99984.31;5093902;28;8854;-63
2023/03/16 10:17:48;;;;;;;;;2.00;2.00;;;;;9.25;51.80;99988.75;5094824;28;8953;-63
2023/03/16 10:20:16;;;;;;;;;2.50;2.50;;;;;9.49;51.14;99994.06;5093009;28;8845;-62
2023/03/16 10:22:44;;;;;;;;;2.00;1.00;;;;;9.51;50.87;99990.34;5093100;28;8833;-62
2023/03/16 10:25:12;;;;;;;;;1.00;1.00;;;;;9.46;51.67;99988.97;5094044;28;9636;-63
2023/03/16 10:27:40;;;;;;;;;1.00;0.25;;;;;9.36;51.77;100002.09;5092903;28;8957;-62
2023/03/16 10:30:08;;;;;;;;;3.25;3.00;;;;;9.37;51.61;99984.34;5092994;28;8922;-61
2023/03/16 10:32:37;;;;;;;;;3.00;2.00;;;;;9.41;51.68;99988.47;5092781;28;9008;-63
2023/03/16 10:35:05;;;;;;;;;0.75;0.75;;;;;9.50;51.45;99999.25;5091686;28;8911;-63
2023/03/16 10:37:34;;;;;;;;;2.00;1.00;;;;;9.60;51.50;99987.00;5092588;28;8915;-63
2023/03/16 10:40:03;;;;;;;;;1.00;1.00;;;;;9.74;51.24;99978.81;5093057;28;8837;-61
2023/03/16 10:42:31;;;;;;;;;2.00;2.00;;;;;9.81;51.12;99971.22;5093086;28;8892;-62
2023/03/16 10:44:59;;;;;;;;;2.00;2.00;;;;;10.02;50.62;99966.94;5092476;28;8927;-62
2023/03/16 10:47:30;;;;;;;;;3.00;3.00;;;;;10.21;50.61;99961.91;5092926;28;8834;-63
2023/03/16 10:49:58;;;;;;;;;1.00;1.00;;;;;10.38;50.06;99972.91;5093398;28;8829;-60
2023/03/16 10:52:26;;;;;;;;;1.00;1.00;;;;;10.47;50.29;99958.88;5091589;28;8853;-61
2023/03/16 10:54:54;;;;;;;;;0.25;0.25;;;;;10.49;49.71;99959.63;5088638;28;9196;-63
2023/03/16 10:57:22;;;;;;;;;3.00;3.00;;;;;10.40;49.70;99978.97;5090267;28;9511;-61
2023/03/16 10:59:50;;;;;;;;;0.50;0.50;;;;;10.32;49.94;99968.06;5090909;28;8842;-61
2023/03/16 11:02:19;;;;;;;;;1.00;1.00;;;;;10.31;50.40;99961.06;5089766;28;8848;-62
2023/03/16 11:04:48;;;;;;;;;3.00;3.00;;;;;10.42;50.18;99969.06;5091006;28;8846;-62
2023/03/16 11:07:16;;;;;;;;;1.00;0.75;;;;;10.61;49.68;99963.97;5090534;28;8845;-63
2023/03/16 11:09:44;;;;;;;;;1.00;1.00;;;;;10.95;49.13;99956.78;5092636;28;8849;-63
2023/03/16 11:12:12;;;;;;;;;1.50;1.50;;;;;11.16;48.65;99947.88;5093134;28;8834;-63
2023/03/16 11:14:40;;;;;;;;;1.00;1.00;;;;;11.15;49.21;99940.03;5092828;28;8851;-60
2023/03/16 11:17:09;;;;;;;;;3.00;3.00;;;;;10.98;49.16;99935.22;5092441;28;9530;-62
2023/03/16 11:19:37;;;;;;;;;2.50;1.00;;;;;10.83;49.35;99932.00;5092812;28;8830;-62
2023/03/16 11:22:05;;;;;;;;;1.00;0.00;;;;;10.68;49.59;99941.22;5092190;28;8818;-61
2023/03/16 11:24:34;;;;;;;;;3.00;1.00;;;;;10.57;49.89;99941.22;5091613;28;8840;-62
2023/03/16 11:27:02;;;;;;;;;0.00;0.00;;;;;10.46;50.22;99925.25;5091195;28;8830;-59
2023/03/16 11:29:31;;;;;;;;;2.50;2.50;;;;;10.43;50.49;99936.16;5090527;28;8918;-60
2023/03/16 11:31:59;;;;;;;;;0.00;0.00;;;;;10.39;50.06;99921.38;5091935;28;8822;-61
2023/03/16 11:34:27;;;;;;;;;2.25;1.00;;;;;10.36;50.60;99913.66;5092664;28;8854;-61
2023/03/16 11:36:55;;;;;;;;;2.50;1.00;;;;;10.28;50.23;99916.06;5092555;28;9593;-63
2023/03/16 11:39:25;;;;;;;;;3.75;1.00;;;;;10.21;50.27;99916.66;5093055;28;8834;-63
2023/03/16 11:41:52;;;;;;;;;0.00;0.00;;;;;10.14;50.63;99918.97;5094154;28;8907;-63
2023/03/16 11:44:21;;;;;;;;;1.00;1.00;;;;;10.07;50.34;99903.59;5093556;28;8826;-63
2023/03/16 11:46:49;;;;;;;;;0.25;0.25;;;;;10.01;51.00;99904.88;5093509;28;8830;-61
2023/03/16 11:49:28;;;;;;;;;0.25;0.25;;;;;10.04;51.43;99895.84;5093665;28;8878;-63